sensor_id;sensor_type;location;lat;lon;timestamp;pressure;altitude;pressure_sealevel;temperature;humidity
45541;BME280;31265;49.680;8.608;2023-02-27T00:00:56;101326.25;;;-1.98;100.00
45541;BME280;31265;49.680;8.608;2023-02-27T00:03:26;101320.41;;;-1.87;100.00
45541;BME280;31265;49.680;8.608;2023-02-27T00:05:54;101327.34;;;-1.86;100.00
45541;BME280;31265;49.680;8.608;2023-02-27T00:08:23;101327.94;;;-1.91;100.00
45541;BME280;31265;49.680;8.608;2023-02-27T00:10:51;101336.84;;;-1.91;100.00
45541;BME280;31265;49.680;8.608;2023-02-27T00:13:21;101326.13;;;-1.76;100.00
45541;BME280;31265;49.680;8.608;2023-02-27T00:15:49;101332.94;;;-1.81;100.00
45541;BME280;31265;49.680;8.608;2023-02-27T00:18:18;101321.59;;;-1.79;100.00
45541;BME280;31265;49.680;8.608;2023-02-27T00:20:48;101322.66;;;-1.77;100.00
45541;BME280;31265;49.680;8.608;2023-02-27T00:23:16;101324.94;;;-1.84;100.00
45541;BME280;31265;49.680;8.608;2023-02-27T00:25:45;101319.75;;;-2.01;100.00
45541;BME280;31265;49.680;8.608;2023-02-27T00:28:13;101317.63;;;-2.06;100.00
45541;BME280;31265;49.680;8.608;2023-02-27T00:30:43;101318.97;;;-2.10;100.00
45541;BME280;31265;49.680;8.608;2023-02-27T00:33:11;101310.22;;;-2.05;100.00
45541;BME280;31265;49.680;8.608;2023-02-27T00:35:40;101316.25;;;-2.10;100.00
45541;BME280;31265;49.680;8.608;2023-02-27T00:38:09;101321.44;;;-1.94;100.00
45541;BME280;31265;49.680;8.608;2023-02-27T00:40:37;101319.31;;;-1.99;100.00
45541;BME280;31265;49.680;8.608;2023-02-27T00:43:05;101315.72;;;-1.78;100.00
45541;BME280;31265;49.680;8.608;2023-02-27T00:45:34;101315.69;;;-1.96;100.00
45541;BME280;31265;49.680;8.608;2023-02-27T00:48:04;101312.06;;;-2.02;100.00
45541;BME280;31265;49.680;8.608;2023-02-27T00:50:32;101315.22;;;-2.04;100.00
45541;BME280;31265;49.680;8.608;2023-02-27T00:53:00;101316.00;;;-1.94;100.00
45541;BME280;31265;49.680;8.608;2023-02-27T00:55:28;101326.84;;;-2.12;100.00
45541;BME280;31265;49.680;8.608;2023-02-27T00:57:57;101317.19;;;-2.04;100.00
45541;BME280;31265;49.680;8.608;2023-02-27T01:00:25;101313.25;;;-2.03;100.00
45541;BME280;31265;49.680;8.608;2023-02-27T01:02:54;101317.44;;;-2.21;100.00
45541;BME280;31265;49.680;8.608;2023-02-27T01:05:24;101321.34;;;-2.31;100.00
45541;BME280;31265;49.680;8.608;2023-02-27T01:07:52;101322.50;;;-2.41;100.00
45541;BME280;31265;49.680;8.608;2023-02-27T01:10:21;101314.00;;;-2.52;100.00
45541;BME280;31265;49.680;8.608;2023-02-27T01:12:50;101320.09;;;-2.39;100.00
45541;BME280;31265;49.680;8.608;2023-02-27T01:15:19;101317.13;;;-2.32;100.00
45541;BME280;31265;49.680;8.608;2023-02-27T01:17:47;101322.50;;;-2.41;100.00
45541;BME280;31265;49.680;8.608;2023-02-27T01:20:16;101320.31;;;-2.24;100.00
45541;BME280;31265;49.680;8.608;2023-02-27T01:22:46;101317.44;;;-2.30;100.00
45541;BME280;31265;49.680;8.608;2023-02-27T01:25:15;101307.91;;;-2.34;100.00
45541;BME280;31265;49.680;8.608;2023-02-27T01:27:43;101304.56;;;-2.39;100.00
45541;BME280;31265;49.680;8.608;2023-02-27T01:30:12;101308.13;;;-2.51;100.00
45541;BME280;31265;49.680;8.608;2023-02-27T01:32:43;101309.03;;;-2.54;100.00
45541;BME280;31265;49.680;8.608;2023-02-27T01:35:12;101311.59;;;-2.60;100.00
45541;BME280;31265;49.680;8.608;2023-02-27T01:37:40;101317.88;;;-2.63;100.00
45541;BME280;31265;49.680;8.608;2023-02-27T01:40:13;101310.47;;;-2.71;100.00
45541;BME280;31265;49.680;8.608;2023-02-27T01:42:41;101313.09;;;-2.58;100.00
45541;BME280;31265;49.680;8.608;2023-02-27T01:45:24;101314.72;;;-2.61;100.00
45541;BME280;31265;49.680;8.608;2023-02-27T01:47:59;101316.66;;;-2.71;100.00
45541;BME280;31265;49.680;8.608;2023-02-27T01:50:34;101313.97;;;-2.62;100.00
45541;BME280;31265;49.680;8.608;2023-02-27T01:53:05;101321.94;;;-2.36;100.00
45541;BME280;31265;49.680;8.608;2023-02-27T01:55:37;101316.50;;;-2.36;100.00
45541;BME280;31265;49.680;8.608;2023-02-27T01:58:09;101306.63;;;-2.43;100.00
45541;BME280;31265;49.680;8.608;2023-02-27T02:00:39;101313.03;;;-2.36;100.00
45541;BME280;31265;49.680;8.608;2023-02-27T02:03:19;101312.72;;;-2.39;100.00
45541;BME280;31265;49.680;8.608;2023-02-27T02:05:52;101316.16;;;-2.38;100.00
45541;BME280;31265;49.680;8.608;2023-02-27T02:08:23;101302.84;;;-2.45;100.00
45541;BME280;31265;49.680;8.608;2023-02-27T02:10:55;101316.81;;;-2.34;100.00
45541;BME280;31265;49.680;8.608;2023-02-27T02:13:25;101306.84;;;-2.37;100.00
45541;BME280;31265;49.680;8.608;2023-02-27T02:16:06;101301.47;;;-2.59;100.00
45541;BME280;31265;49.680;8.608;2023-02-27T02:18:47;101306.53;;;-2.70;100.00
45541;BME280;31265;49.680;8.608;2023-02-27T02:21:41;101301.25;;;-2.74;100.00
45541;BME280;31265;49.680;8.608;2023-02-27T02:24:44;101302.66;;;-2.60;100.00
45541;BME280;31265;49.680;8.608;2023-02-27T02:27:28;101303.13;;;-2.62;100.00
45541;BME280;31265;49.680;8.608;2023-02-27T02:42:04;101308.53;;;-2.62;100.00
45541;BME280;31265;49.680;8.608;2023-02-27T02:44:41;101306.91;;;-2.59;100.00
45541;BME280;31265;49.680;8.608;2023-02-27T02:47:19;101295.28;;;-2.60;100.00
45541;BME280;31265;49.680;8.608;2023-02-27T02:49:55;101295.28;;;-2.60;100.00
45541;BME280;31265;49.680;8.608;2023-02-27T02:52:30;101295.88;;;-2.55;100.00
45541;BME280;31265;49.680;8.608;2023-02-27T02:55:07;101291.34;;;-2.58;100.00
45541;BME280;31265;49.680;8.608;2023-02-27T02:57:39;101302.78;;;-2.64;100.00
45541;BME280;31265;49.680;8.608;2023-02-27T03:00:11;101299.94;;;-2.60;100.00
45541;BME280;31265;49.680;8.608;2023-02-27T03:02:45;101301.66;;;-2.44;100.00
45541;BME280;31265;49.680;8.608;2023-02-27T03:05:21;101311.00;;;-2.54;100.00
45541;BME280;31265;49.680;8.608;2023-02-27T03:07:57;101306.44;;;-2.57;100.00
45541;BME280;31265;49.680;8.608;2023-02-27T03:10:33;101308.28;;;-2.54;100.00
45541;BME280;31265;49.680;8.608;2023-02-27T03:13:07;101307.50;;;-2.55;100.00
45541;BME280;31265;49.680;8.608;2023-02-27T03:15:39;101306.59;;;-2.61;100.00
45541;BME280;31265;49.680;8.608;2023-02-27T03:18:14;101307.66;;;-2.58;100.00
45541;BME280;31265;49.680;8.608;2023-02-27T03:20:51;101314.94;;;-2.46;100.00
45541;BME280;31265;49.680;8.608;2023-02-27T03:23:27;101314.00;;;-2.52;100.00
45541;BME280;31265;49.680;8.608;2023-02-27T03:26:01;101318.09;;;-2.48;100.00
45541;BME280;31265;49.680;8.608;2023-02-27T03:28:36;101312.50;;;-2.53;100.00
45541;BME280;31265;49.680;8.608;2023-02-27T03:31:12;101312.19;;;-2.55;100.00
45541;BME280;31265;49.680;8.608;2023-02-27T03:33:48;101317.03;;;-2.50;100.00
45541;BME280;31265;49.680;8.608;2023-02-27T03:36:24;101316.44;;;-2.54;100.00
45541;BME280;31265;49.680;8.608;2023-02-27T03:39:01;101317.31;;;-2.57;100.00
45541;BME280;31265;49.680;8.608;2023-02-27T03:41:37;101322.94;;;-2.52;100.00
45541;BME280;31265;49.680;8.608;2023-02-27T03:44:33;101323.16;;;-2.37;100.00
45541;BME280;31265;49.680;8.608;2023-02-27T03:47:08;101324.75;;;-2.49;100.00
45541;BME280;31265;49.680;8.608;2023-02-27T03:49:37;101333.38;;;-2.41;100.00
45541;BME280;31265;49.680;8.608;2023-02-27T03:52:07;101336.41;;;-2.39;100.00
45541;BME280;31265;49.680;8.608;2023-02-27T03:54:39;101342.13;;;-2.46;100.00
45541;BME280;31265;49.680;8.608;2023-02-27T03:57:11;101338.19;;;-2.45;100.00
45541;BME280;31265;49.680;8.608;2023-02-27T03:59:42;101347.88;;;-2.44;100.00
45541;BME280;31265;49.680;8.608;2023-02-27T04:02:11;101344.13;;;-2.38;100.00
45541;BME280;31265;49.680;8.608;2023-02-27T04:04:39;101357.53;;;-2.43;100.00
45541;BME280;31265;49.680;8.608;2023-02-27T04:07:15;101348.53;;;-2.31;100.00
45541;BME280;31265;49.680;8.608;2023-02-27T04:10:24;101351.63;;;-2.51;100.00
45541;BME280;31265;49.680;8.608;2023-02-27T04:13:20;101357.84;;;-2.41;100.00
45541;BME280;31265;49.680;8.608;2023-02-27T04:18:58;101369.84;;;-2.20;100.00
45541;BME280;31265;49.680;8.608;2023-02-27T04:21:36;101370.84;;;-2.36;100.00
45541;BME280;31265;49.680;8.608;2023-02-27T04:24:14;101362.50;;;-2.51;100.00
45541;BME280;31265;49.680;8.608;2023-02-27T04:26:51;101366.91;;;-2.44;100.00
45541;BME280;31265;49.680;8.608;2023-02-27T04:29:31;101369.94;;;-2.42;100.00
45541;BME280;31265;49.680;8.608;2023-02-27T04:32:07;101368.06;;;-2.54;100.00
45541;BME280;31265;49.680;8.608;2023-02-27T04:34:47;101375.53;;;-2.68;100.00
45541;BME280;31265;49.680;8.608;2023-02-27T04:37:21;101369.84;;;-2.83;100.00
45541;BME280;31265;49.680;8.608;2023-02-27T04:39:54;101368.34;;;-2.84;100.00
45541;BME280;31265;49.680;8.608;2023-02-27T04:42:28;101376.94;;;-2.85;100.00
45541;BME280;31265;49.680;8.608;2023-02-27T04:45:01;101381.19;;;-2.84;100.00
45541;BME280;31265;49.680;8.608;2023-02-27T04:47:34;101379.47;;;-2.91;100.00
45541;BME280;31265;49.680;8.608;2023-02-27T04:50:08;101376.56;;;-2.96;100.00
45541;BME280;31265;49.680;8.608;2023-02-27T04:52:40;101384.59;;;-2.93;100.00
45541;BME280;31265;49.680;8.608;2023-02-27T04:55:12;101380.22;;;-2.90;100.00
45541;BME280;31265;49.680;8.608;2023-02-27T04:57:47;101386.41;;;-2.90;100.00
45541;BME280;31265;49.680;8.608;2023-02-27T05:00:20;101389.91;;;-2.89;100.00
45541;BME280;31265;49.680;8.608;2023-02-27T05:02:56;101388.94;;;-2.95;100.00
45541;BME280;31265;49.680;8.608;2023-02-27T05:05:29;101394.06;;;-2.97;100.00
45541;BME280;31265;49.680;8.608;2023-02-27T05:08:03;101393.88;;;-3.03;100.00
45541;BME280;31265;49.680;8.608;2023-02-27T05:10:37;101390.31;;;-3.13;100.00
45541;BME280;31265;49.680;8.608;2023-02-27T05:13:12;101398.06;;;-3.24;100.00
45541;BME280;31265;49.680;8.608;2023-02-27T05:15:45;101390.53;;;-3.42;100.00
45541;BME280;31265;49.680;8.608;2023-02-27T05:18:17;101401.94;;;-3.47;100.00
45541;BME280;31265;49.680;8.608;2023-02-27T05:20:52;101398.72;;;-3.55;100.00
45541;BME280;31265;49.680;8.608;2023-02-27T05:23:30;101390.25;;;-3.57;100.00
45541;BME280;31265;49.680;8.608;2023-02-27T05:26:03;101387.19;;;-3.59;100.00
45541;BME280;31265;49.680;8.608;2023-02-27T05:28:38;101392.34;;;-3.61;100.00
45541;BME280;31265;49.680;8.608;2023-02-27T05:31:20;101395.47;;;-3.62;100.00
45541;BME280;31265;49.680;8.608;2023-02-27T05:33:55;101401.00;;;-3.53;100.00
45541;BME280;31265;49.680;8.608;2023-02-27T05:36:29;101400.22;;;-3.54;100.00
45541;BME280;31265;49.680;8.608;2023-02-27T05:39:03;101399.38;;;-3.51;100.00
45541;BME280;31265;49.680;8.608;2023-02-27T05:41:37;101393.56;;;-3.40;100.00
45541;BME280;31265;49.680;8.608;2023-02-27T05:44:09;101394.09;;;-3.32;100.00
45541;BME280;31265;49.680;8.608;2023-02-27T05:46:51;101388.75;;;-3.23;100.00
45541;BME280;31265;49.680;8.608;2023-02-27T05:49:24;101399.69;;;-3.14;100.00
45541;BME280;31265;49.680;8.608;2023-02-27T05:51:56;101396.44;;;-3.21;100.00
45541;BME280;31265;49.680;8.608;2023-02-27T05:54:32;101398.88;;;-3.36;100.00
45541;BME280;31265;49.680;8.608;2023-02-27T05:57:03;101395.44;;;-3.50;100.00
45541;BME280;31265;49.680;8.608;2023-02-27T05:59:37;101404.06;;;-3.29;100.00
45541;BME280;31265;49.680;8.608;2023-02-27T06:02:11;101406.09;;;-3.20;100.00
45541;BME280;31265;49.680;8.608;2023-02-27T06:04:40;101402.06;;;-3.16;100.00
45541;BME280;31265;49.680;8.608;2023-02-27T06:07:10;101410.13;;;-3.25;100.00
45541;BME280;31265;49.680;8.608;2023-02-27T06:09:39;101408.00;;;-3.08;100.00
45541;BME280;31265;49.680;8.608;2023-02-27T06:12:08;101419.72;;;-2.98;100.00
45541;BME280;31265;49.680;8.608;2023-02-27T06:14:38;101417.06;;;-2.89;100.00
45541;BME280;31265;49.680;8.608;2023-02-27T06:17:06;101428.75;;;-3.01;100.00
45541;BME280;31265;49.680;8.608;2023-02-27T06:19:36;101431.44;;;-2.79;100.00
45541;BME280;31265;49.680;8.608;2023-02-27T06:22:04;101431.41;;;-2.89;100.00
45541;BME280;31265;49.680;8.608;2023-02-27T06:24:32;101432.41;;;-2.95;100.00
45541;BME280;31265;49.680;8.608;2023-02-27T06:27:01;101432.72;;;-2.71;100.00
45541;BME280;31265;49.680;8.608;2023-02-27T06:29:29;101436.13;;;-2.80;100.00
45541;BME280;31265;49.680;8.608;2023-02-27T06:31:57;101438.34;;;-2.66;100.00
45541;BME280;31265;49.680;8.608;2023-02-27T06:34:26;101437.44;;;-2.63;100.00
45541;BME280;31265;49.680;8.608;2023-02-27T06:36:56;101442.03;;;-2.60;100.00
45541;BME280;31265;49.680;8.608;2023-02-27T06:39:24;101450.19;;;-2.60;100.00
45541;BME280;31265;49.680;8.608;2023-02-27T06:41:53;101452.91;;;-2.60;100.00
45541;BME280;31265;49.680;8.608;2023-02-27T06:44:24;101455.16;;;-2.58;100.00
45541;BME280;31265;49.680;8.608;2023-02-27T06:46:53;101454.00;;;-2.48;100.00
45541;BME280;31265;49.680;8.608;2023-02-27T06:49:21;101459.72;;;-2.24;100.00
45541;BME280;31265;49.680;8.608;2023-02-27T06:51:50;101457.91;;;-2.27;100.00
45541;BME280;31265;49.680;8.608;2023-02-27T06:54:20;101458.91;;;-2.11;100.00
45541;BME280;31265;49.680;8.608;2023-02-27T06:56:48;101460.41;;;-2.10;100.00
45541;BME280;31265;49.680;8.608;2023-02-27T06:59:18;101464.66;;;-2.09;100.00
45541;BME280;31265;49.680;8.608;2023-02-27T07:01:46;101474.03;;;-2.01;100.00
45541;BME280;31265;49.680;8.608;2023-02-27T07:04:16;101461.72;;;-1.84;100.00
45541;BME280;31265;49.680;8.608;2023-02-27T07:06:44;101473.06;;;-1.85;100.00
45541;BME280;31265;49.680;8.608;2023-02-27T07:09:35;101475.38;;;-1.75;100.00
45541;BME280;31265;49.680;8.608;2023-02-27T07:12:04;101474.47;;;-1.71;100.00
45541;BME280;31265;49.680;8.608;2023-02-27T07:14:33;101473.00;;;-1.54;100.00
45541;BME280;31265;49.680;8.608;2023-02-27T07:17:02;101485.34;;;-1.71;100.00
45541;BME280;31265;49.680;8.608;2023-02-27T07:19:31;101481.13;;;-1.63;100.00
45541;BME280;31265;49.680;8.608;2023-02-27T07:22:04;101480.25;;;-1.51;100.00
45541;BME280;31265;49.680;8.608;2023-02-27T07:24:36;101483.66;;;-1.28;100.00
45541;BME280;31265;49.680;8.608;2023-02-27T07:27:04;101484.56;;;-1.22;100.00
45541;BME280;31265;49.680;8.608;2023-02-27T07:29:33;101487.75;;;-1.15;100.00
45541;BME280;31265;49.680;8.608;2023-02-27T07:32:02;101485.38;;;-1.03;100.00
45541;BME280;31265;49.680;8.608;2023-02-27T07:34:30;101487.31;;;-0.67;100.00
45541;BME280;31265;49.680;8.608;2023-02-27T07:36:59;101487.75;;;-0.59;100.00
45541;BME280;31265;49.680;8.608;2023-02-27T07:39:27;101487.63;;;-0.56;100.00
45541;BME280;31265;49.680;8.608;2023-02-27T07:41:58;101487.19;;;-0.54;100.00
45541;BME280;31265;49.680;8.608;2023-02-27T07:44:27;101482.44;;;-0.35;100.00
45541;BME280;31265;49.680;8.608;2023-02-27T07:46:55;101494.25;;;-0.48;100.00
45541;BME280;31265;49.680;8.608;2023-02-27T07:49:24;101488.31;;;-0.28;100.00
45541;BME280;31265;49.680;8.608;2023-02-27T07:51:52;101483.59;;;-0.09;100.00
45541;BME280;31265;49.680;8.608;2023-02-27T07:54:20;101479.94;;;-0.06;100.00
45541;BME280;31265;49.680;8.608;2023-02-27T07:56:49;101473.31;;;-0.23;100.00
45541;BME280;31265;49.680;8.608;2023-02-27T07:59:20;101483.31;;;-0.20;100.00
45541;BME280;31265;49.680;8.608;2023-02-27T08:01:48;101482.56;;;-0.20;100.00
45541;BME280;31265;49.680;8.608;2023-02-27T08:04:17;101481.16;;;-0.07;100.00
45541;BME280;31265;49.680;8.608;2023-02-27T08:06:45;101479.38;;;0.24;100.00
45541;BME280;31265;49.680;8.608;2023-02-27T08:09:16;101482.59;;;0.13;100.00
45541;BME280;31265;49.680;8.608;2023-02-27T08:11:45;101483.50;;;0.10;100.00
45541;BME280;31265;49.680;8.608;2023-02-27T08:14:15;101479.28;;;0.09;100.00
45541;BME280;31265;49.680;8.608;2023-02-27T08:16:46;101476.97;;;0.16;100.00
45541;BME280;31265;49.680;8.608;2023-02-27T08:19:14;101474.56;;;0.09;100.00
45541;BME280;31265;49.680;8.608;2023-02-27T08:21:42;101478.97;;;0.07;100.00
45541;BME280;31265;49.680;8.608;2023-02-27T08:24:10;101479.09;;;0.12;100.00
45541;BME280;31265;49.680;8.608;2023-02-27T08:26:38;101483.47;;;0.19;100.00
45541;BME280;31265;49.680;8.608;2023-02-27T08:29:07;101488.53;;;0.45;99.85
45541;BME280;31265;49.680;8.608;2023-02-27T08:31:35;101489.13;;;0.39;100.00
45541;BME280;31265;49.680;8.608;2023-02-27T08:34:05;101487.09;;;0.58;98.58
45541;BME280;31265;49.680;8.608;2023-02-27T08:36:37;101495.84;;;0.38;96.39
45541;BME280;31265;49.680;8.608;2023-02-27T08:39:06;101491.25;;;0.45;97.44
45541;BME280;31265;49.680;8.608;2023-02-27T08:41:37;101493.94;;;0.54;97.73
45541;BME280;31265;49.680;8.608;2023-02-27T08:44:05;101498.66;;;0.53;95.64
45541;BME280;31265;49.680;8.608;2023-02-27T08:46:33;101498.91;;;0.64;97.20
45541;BME280;31265;49.680;8.608;2023-02-27T08:49:01;101493.41;;;0.40;94.40
45541;BME280;31265;49.680;8.608;2023-02-27T08:51:32;101494.63;;;0.63;98.17
45541;BME280;31265;49.680;8.608;2023-02-27T08:54:03;101496.22;;;0.79;95.17
45541;BME280;31265;49.680;8.608;2023-02-27T08:56:32;101491.63;;;0.85;98.38
45541;BME280;31265;49.680;8.608;2023-02-27T08:59:01;101497.56;;;1.23;92.01
45541;BME280;31265;49.680;8.608;2023-02-27T09:01:30;101496.53;;;1.20;92.34
45541;BME280;31265;49.680;8.608;2023-02-27T09:04:01;101500.50;;;1.19;92.59
45541;BME280;31265;49.680;8.608;2023-02-27T09:06:30;101504.06;;;1.25;89.59
45541;BME280;31265;49.680;8.608;2023-02-27T09:09:01;101502.50;;;1.34;93.16
45541;BME280;31265;49.680;8.608;2023-02-27T09:11:33;101496.91;;;1.28;87.12
45541;BME280;31265;49.680;8.608;2023-02-27T09:14:04;101496.41;;;1.54;90.43
45541;BME280;31265;49.680;8.608;2023-02-27T09:16:33;101502.69;;;1.45;88.62
45541;BME280;31265;49.680;8.608;2023-02-27T09:19:02;101496.41;;;1.54;89.70
45541;BME280;31265;49.680;8.608;2023-02-27T09:21:31;101500.91;;;1.57;86.07
45541;BME280;31265;49.680;8.608;2023-02-27T09:24:01;101506.97;;;1.46;85.61
45541;BME280;31265;49.680;8.608;2023-02-27T09:26:45;101506.03;;;1.64;85.41
45541;BME280;31265;49.680;8.608;2023-02-27T09:29:15;101499.03;;;1.63;82.81
45541;BME280;31265;49.680;8.608;2023-02-27T09:31:43;101499.22;;;1.74;83.30
45541;BME280;31265;49.680;8.608;2023-02-27T09:34:12;101502.72;;;1.60;82.18
45541;BME280;31265;49.680;8.608;2023-02-27T09:36:41;101499.41;;;1.70;79.71
45541;BME280;31265;49.680;8.608;2023-02-27T09:39:11;101503.56;;;1.66;78.48
45541;BME280;31265;49.680;8.608;2023-02-27T09:41:49;101507.91;;;1.87;80.35
45541;BME280;31265;49.680;8.608;2023-02-27T09:44:25;101510.47;;;1.91;76.05
45541;BME280;31265;49.680;8.608;2023-02-27T09:47:15;101515.06;;;1.85;75.37
45541;BME280;31265;49.680;8.608;2023-02-27T09:49:50;101518.75;;;1.82;77.83
45541;BME280;31265;49.680;8.608;2023-02-27T09:52:22;101509.59;;;2.00;77.34
45541;BME280;31265;49.680;8.608;2023-02-27T09:54:52;101518.66;;;2.06;78.70
45541;BME280;31265;49.680;8.608;2023-02-27T09:57:30;101524.22;;;2.11;77.89
45541;BME280;31265;49.680;8.608;2023-02-27T10:00:09;101512.03;;;1.98;76.07
45541;BME280;31265;49.680;8.608;2023-02-27T10:02:51;101527.72;;;1.97;74.75
45541;BME280;31265;49.680;8.608;2023-02-27T10:05:30;101526.75;;;2.15;75.34
45541;BME280;31265;49.680;8.608;2023-02-27T10:08:07;101536.41;;;2.25;74.16
45541;BME280;31265;49.680;8.608;2023-02-27T10:10:44;101542.69;;;2.31;76.65
45541;BME280;31265;49.680;8.608;2023-02-27T10:13:26;101535.91;;;2.27;73.76
45541;BME280;31265;49.680;8.608;2023-02-27T10:15:56;101535.16;;;2.62;79.67
45541;BME280;31265;49.680;8.608;2023-02-27T10:18:28;101536.66;;;2.77;73.32
45541;BME280;31265;49.680;8.608;2023-02-27T10:20:59;101535.97;;;2.47;71.47
45541;BME280;31265;49.680;8.608;2023-02-27T10:23:34;101533.50;;;2.49;70.72
45541;BME280;31265;49.680;8.608;2023-02-27T10:26:05;101540.28;;;2.54;70.63
45541;BME280;31265;49.680;8.608;2023-02-27T10:28:43;101543.28;;;2.71;73.66
45541;BME280;31265;49.680;8.608;2023-02-27T10:31:15;101548.59;;;2.59;71.98
45541;BME280;31265;49.680;8.608;2023-02-27T10:33:49;101557.16;;;2.82;72.00
45541;BME280;31265;49.680;8.608;2023-02-27T10:36:20;101550.69;;;2.65;71.44
45541;BME280;31265;49.680;8.608;2023-02-27T10:39:04;101543.06;;;2.74;73.47
45541;BME280;31265;49.680;8.608;2023-02-27T10:41:38;101547.50;;;2.72;72.27
45541;BME280;31265;49.680;8.608;2023-02-27T10:44:09;101552.06;;;2.75;70.87
45541;BME280;31265;49.680;8.608;2023-02-27T10:46:42;101538.34;;;2.75;71.28
45541;BME280;31265;49.680;8.608;2023-02-27T10:49:14;101540.38;;;2.95;72.25
45541;BME280;31265;49.680;8.608;2023-02-27T10:51:45;101536.66;;;2.98;73.21
45541;BME280;31265;49.680;8.608;2023-02-27T10:54:20;101538.50;;;2.86;70.82
45541;BME280;31265;49.680;8.608;2023-02-27T10:56:53;101543.16;;;2.80;70.88
45541;BME280;31265;49.680;8.608;2023-02-27T10:59:24;101549.00;;;3.08;69.34
45541;BME280;31265;49.680;8.608;2023-02-27T11:01:55;101546.91;;;3.23;71.61
45541;BME280;31265;49.680;8.608;2023-02-27T11:04:31;101547.13;;;3.40;69.50
45541;BME280;31265;49.680;8.608;2023-02-27T11:07:05;101531.91;;;3.39;70.46
45541;BME280;31265;49.680;8.608;2023-02-27T11:09:35;101537.13;;;3.37;67.23
45541;BME280;31265;49.680;8.608;2023-02-27T11:12:19;101537.59;;;3.88;69.22
45541;BME280;31265;49.680;8.608;2023-02-27T11:14:50;101532.69;;;3.66;65.43
45541;BME280;31265;49.680;8.608;2023-02-27T11:17:25;101536.66;;;3.65;68.75
45541;BME280;31265;49.680;8.608;2023-02-27T11:19:56;101530.19;;;3.42;68.46
45541;BME280;31265;49.680;8.608;2023-02-27T11:22:26;101531.84;;;3.60;68.34
45541;BME280;31265;49.680;8.608;2023-02-27T11:25:16;101520.66;;;3.90;67.21
45541;BME280;31265;49.680;8.608;2023-02-27T11:27:48;101524.09;;;3.84;66.14
45541;BME280;31265;49.680;8.608;2023-02-27T11:30:24;101527.34;;;3.57;66.49
45541;BME280;31265;49.680;8.608;2023-02-27T11:32:55;101524.75;;;3.48;66.01
45541;BME280;31265;49.680;8.608;2023-02-27T11:35:27;101524.50;;;3.72;67.99
45541;BME280;31265;49.680;8.608;2023-02-27T11:37:59;101526.13;;;3.63;66.97
45541;BME280;31265;49.680;8.608;2023-02-27T11:40:30;101528.09;;;3.83;67.85
45541;BME280;31265;49.680;8.608;2023-02-27T11:43:04;101514.81;;;4.08;64.73
45541;BME280;31265;49.680;8.608;2023-02-27T11:45:39;101522.81;;;4.12;64.29
45541;BME280;31265;49.680;8.608;2023-02-27T11:48:30;101523.34;;;3.84;64.91
45541;BME280;31265;49.680;8.608;2023-02-27T11:51:25;101524.00;;;4.05;64.82
45541;BME280;31265;49.680;8.608;2023-02-27T11:54:07;101515.00;;;3.47;64.64
45541;BME280;31265;49.680;8.608;2023-02-27T11:56:43;101527.09;;;3.34;69.63
45541;BME280;31265;49.680;8.608;2023-02-27T11:59:37;101514.78;;;3.24;70.49
45541;BME280;31265;49.680;8.608;2023-02-27T12:02:16;101520.03;;;3.74;66.88
45541;BME280;31265;49.680;8.608;2023-02-27T12:04:51;101513.38;;;3.86;66.52
45541;BME280;31265;49.680;8.608;2023-02-27T12:07:24;101512.38;;;3.84;64.72
45541;BME280;31265;49.680;8.608;2023-02-27T12:09:59;101514.97;;;3.67;64.78
45541;BME280;31265;49.680;8.608;2023-02-27T12:12:35;101506.38;;;3.33;65.73
45541;BME280;31265;49.680;8.608;2023-02-27T12:15:19;101501.00;;;2.98;67.22
45541;BME280;31265;49.680;8.608;2023-02-27T12:17:55;101497.69;;;3.35;65.79
45541;BME280;31265;49.680;8.608;2023-02-27T12:20:29;101500.41;;;3.61;65.13
45541;BME280;31265;49.680;8.608;2023-02-27T12:23:01;101488.00;;;3.39;63.20
45541;BME280;31265;49.680;8.608;2023-02-27T12:25:38;101475.94;;;3.57;64.33
45541;BME280;31265;49.680;8.608;2023-02-27T12:28:18;101486.31;;;3.48;65.20
45541;BME280;31265;49.680;8.608;2023-02-27T12:30:51;101481.84;;;3.50;63.85
45541;BME280;31265;49.680;8.608;2023-02-27T12:33:31;101493.41;;;3.34;63.68
45541;BME280;31265;49.680;8.608;2023-02-27T12:36:03;101487.06;;;3.48;66.24
45541;BME280;31265;49.680;8.608;2023-02-27T12:38:32;101476.06;;;3.42;65.00
45541;BME280;31265;49.680;8.608;2023-02-27T12:41:15;101470.56;;;3.42;64.50
45541;BME280;31265;49.680;8.608;2023-02-27T12:43:48;101470.59;;;3.48;65.13
45541;BME280;31265;49.680;8.608;2023-02-27T12:46:30;101483.44;;;3.57;65.64
45541;BME280;31265;49.680;8.608;2023-02-27T12:49:13;101471.00;;;3.35;65.76
45541;BME280;31265;49.680;8.608;2023-02-27T12:51:50;101482.25;;;3.37;64.95
45541;BME280;31265;49.680;8.608;2023-02-27T12:54:29;101481.28;;;3.66;67.65
45541;BME280;31265;49.680;8.608;2023-02-27T12:57:08;101481.66;;;3.85;65.96
45541;BME280;31265;49.680;8.608;2023-02-27T12:59:51;101474.44;;;4.20;63.31
45541;BME280;31265;49.680;8.608;2023-02-27T13:02:36;101488.16;;;4.20;63.21
45541;BME280;31265;49.680;8.608;2023-02-27T13:05:15;101478.63;;;4.15;63.23
45541;BME280;31265;49.680;8.608;2023-02-27T13:07:56;101474.00;;;3.95;62.96
45541;BME280;31265;49.680;8.608;2023-02-27T13:10:31;101468.13;;;3.76;61.70
45541;BME280;31265;49.680;8.608;2023-02-27T13:13:05;101469.19;;;3.84;64.92
45541;BME280;31265;49.680;8.608;2023-02-27T13:15:39;101469.50;;;4.29;65.76
45541;BME280;31265;49.680;8.608;2023-02-27T13:18:23;101463.00;;;4.81;65.47
45541;BME280;31265;49.680;8.608;2023-02-27T13:20:57;101457.56;;;4.98;63.26
45541;BME280;31265;49.680;8.608;2023-02-27T13:23:32;101451.81;;;5.02;60.44
45541;BME280;31265;49.680;8.608;2023-02-27T13:26:09;101453.88;;;5.12;60.69
45541;BME280;31265;49.680;8.608;2023-02-27T13:28:41;101461.06;;;5.04;61.44
45541;BME280;31265;49.680;8.608;2023-02-27T13:31:18;101463.00;;;4.76;61.70
45541;BME280;31265;49.680;8.608;2023-02-27T13:33:54;101476.56;;;4.96;60.61